createdAt,value
2018-07-16T00:00:25.177Z,99979.05
2018-07-16T00:02:53.608Z,99976.15
2018-07-16T00:05:22.026Z,99972.28
2018-07-16T00:07:50.561Z,99981.66
2018-07-16T00:10:19.077Z,99982.67
2018-07-16T00:12:47.525Z,99974.44
2018-07-16T00:15:16.054Z,99978.42
2018-07-16T00:17:44.741Z,99969.78
2018-07-16T00:20:13.179Z,99978.11
2018-07-16T00:22:41.626Z,99971.64
2018-07-16T00:25:10.198Z,99975.40
2018-07-16T00:27:38.647Z,99970.23
2018-07-16T00:30:07.148Z,99966.02
2018-07-16T00:32:35.621Z,99960.63
2018-07-16T00:35:04.092Z,99958.34
2018-07-16T00:37:32.556Z,99951.99
2018-07-16T00:40:00.975Z,99959.62
2018-07-16T00:42:29.537Z,99956.66
2018-07-16T00:44:57.997Z,99954.31
2018-07-16T00:47:26.417Z,99953.31
2018-07-16T00:49:55.833Z,99954.80
2018-07-16T00:52:24.262Z,99951.88
2018-07-16T00:54:52.761Z,99942.64
2018-07-16T00:57:21.421Z,99949.97
2018-07-16T00:59:49.870Z,99945.63
2018-07-16T01:02:18.337Z,99942.61
2018-07-16T01:04:46.785Z,99945.16
2018-07-16T01:07:15.246Z,99947.42
2018-07-16T01:09:44.278Z,99950.28
2018-07-16T01:12:12.715Z,99949.18
2018-07-16T01:14:41.152Z,99950.80
2018-07-16T01:17:09.629Z,99942.35
2018-07-16T01:19:38.054Z,99946.77
2018-07-16T01:22:06.482Z,99948.30
2018-07-16T01:24:34.981Z,99939.92
2018-07-16T01:27:03.466Z,99943.11
2018-07-16T01:29:31.897Z,99940.34
2018-07-16T01:32:00.327Z,99941.27
2018-07-16T01:34:28.800Z,99934.96
2018-07-16T01:36:57.240Z,99947.48
2018-07-16T01:39:25.758Z,99936.73
2018-07-16T01:41:54.165Z,99942.45
2018-07-16T01:44:22.953Z,99941.39
2018-07-16T01:46:51.577Z,99948.98
2018-07-16T01:49:20.650Z,99945.30
2018-07-16T01:51:49.144Z,99946.53
2018-07-16T01:54:17.719Z,99946.30
2018-07-16T01:56:46.121Z,99936.84
2018-07-16T01:59:14.541Z,99935.99
2018-07-16T02:01:43.142Z,99932.16
2018-07-16T02:04:11.547Z,99934.48
2018-07-16T02:06:39.948Z,99937.97
2018-07-16T02:09:08.394Z,99939.86
2018-07-16T02:11:36.866Z,99937.94
2018-07-16T02:14:05.278Z,99939.41
2018-07-16T02:16:33.786Z,99931.47
2018-07-16T02:19:02.178Z,99936.40
2018-07-16T02:21:30.609Z,99930.98
2018-07-16T02:23:59.017Z,99935.16
2018-07-16T02:26:27.562Z,99937.34
2018-07-16T02:28:55.972Z,99933.30
2018-07-16T02:31:24.426Z,99931.33
2018-07-16T02:33:52.878Z,99929.83
2018-07-16T02:36:21.281Z,99934.61
2018-07-16T02:38:50.211Z,99929.61
2018-07-16T02:41:18.607Z,99927.72
2018-07-16T02:43:47.370Z,99925.98
2018-07-16T02:46:16.022Z,99921.06
2018-07-16T02:48:44.440Z,99924.42
2018-07-16T02:51:12.844Z,99922.13
2018-07-16T02:53:41.253Z,99921.57
2018-07-16T02:56:09.713Z,99925.30
2018-07-16T02:58:38.130Z,99925.79
2018-07-16T03:01:06.650Z,99924.13
2018-07-16T03:03:35.131Z,99925.67
2018-07-16T03:06:03.626Z,99927.42
2018-07-16T03:08:32.107Z,99925.21
2018-07-16T03:11:00.551Z,99928.30
2018-07-16T03:13:28.992Z,99938.49
2018-07-16T03:15:57.818Z,99937.03
2018-07-16T03:18:26.358Z,99934.55
2018-07-16T03:20:54.868Z,99937.06
2018-07-16T03:23:23.268Z,99941.39
2018-07-16T03:25:51.699Z,99940.84
2018-07-16T03:28:20.158Z,99940.02
2018-07-16T03:30:48.590Z,99939.75
2018-07-16T03:33:17.055Z,99938.86
2018-07-16T03:35:45.600Z,99940.69
2018-07-16T03:38:14.021Z,99941.16
2018-07-16T03:40:42.476Z,99937.36
2018-07-16T03:43:11.029Z,99926.80
2018-07-16T03:45:39.498Z,99936.95
2018-07-16T03:48:08.021Z,99942.42
2018-07-16T03:50:36.406Z,99940.55
2018-07-16T03:53:04.838Z,99931.89
2018-07-16T03:55:33.345Z,99927.92
2018-07-16T03:58:01.760Z,99927.53
2018-07-16T04:00:30.346Z,99928.08
2018-07-16T04:02:58.809Z,99928.81
2018-07-16T04:05:27.269Z,99929.02
2018-07-16T04:07:55.876Z,99927.30
2018-07-16T04:10:24.324Z,99935.44
2018-07-16T04:12:52.769Z,99929.14
2018-07-16T04:15:21.323Z,99930.52
2018-07-16T04:17:49.757Z,99929.66
2018-07-16T04:20:18.280Z,99937.53
2018-07-16T04:22:46.722Z,99938.84
2018-07-16T04:25:15.162Z,99936.31
2018-07-16T04:27:43.710Z,99938.20
2018-07-16T04:30:12.194Z,99931.81
2018-07-16T04:32:40.739Z,99933.33
2018-07-16T04:35:09.462Z,99935.98
2018-07-16T04:37:37.857Z,99936.97
2018-07-16T04:40:06.335Z,99934.97
2018-07-16T04:42:34.793Z,99931.16
2018-07-16T04:45:03.317Z,99925.11
2018-07-16T04:47:31.762Z,99933.05
2018-07-16T04:50:00.165Z,99931.38
2018-07-16T04:52:28.622Z,99928.98
2018-07-16T04:54:57.080Z,99934.78
2018-07-16T04:57:25.486Z,99936.00
2018-07-16T04:59:53.899Z,99926.59
2018-07-16T05:02:22.409Z,99925.63
2018-07-16T05:04:50.862Z,99923.93
2018-07-16T05:07:19.407Z,99931.30
2018-07-16T05:09:47.801Z,99926.61
2018-07-16T05:12:16.225Z,99928.27
2018-07-16T05:14:44.616Z,99924.11
2018-07-16T05:17:13.073Z,99920.07
2018-07-16T05:19:41.686Z,99921.17
2018-07-16T05:22:10.132Z,99923.41
2018-07-16T05:24:38.565Z,99915.78
2018-07-16T05:27:07.267Z,99918.42
2018-07-16T05:29:35.700Z,99913.88
2018-07-16T05:32:04.239Z,99918.38
2018-07-16T05:34:33.153Z,99916.69
2018-07-16T05:37:01.924Z,99910.25
2018-07-16T05:39:30.331Z,99916.47
2018-07-16T05:41:58.830Z,99918.33
2018-07-16T05:44:27.906Z,99916.28
2018-07-16T05:46:56.332Z,99922.70
2018-07-16T05:49:24.753Z,99919.17
2018-07-16T05:51:53.196Z,99921.59
2018-07-16T05:54:21.619Z,99920.64
2018-07-16T05:56:50.113Z,99916.80
2018-07-16T05:59:18.529Z,99917.32
2018-07-16T06:01:46.978Z,99927.17
2018-07-16T06:04:15.436Z,99926.21
2018-07-16T06:06:43.896Z,99929.80
2018-07-16T06:09:13.616Z,99927.23
2018-07-16T06:11:42.075Z,99929.62
2018-07-16T06:14:10.468Z,99929.92
2018-07-16T06:16:39.005Z,99935.20
2018-07-16T06:19:09.097Z,99928.93
2018-07-16T06:21:37.570Z,99926.73
2018-07-16T06:24:06.331Z,99926.58
2018-07-16T06:26:34.641Z,99919.13
2018-07-16T06:29:03.178Z,99917.53
2018-07-16T06:31:31.638Z,99914.52
2018-07-16T06:34:00.104Z,99910.62
2018-07-16T06:36:28.493Z,99912.94
2018-07-16T06:38:56.906Z,99917.52
2018-07-16T06:41:26.412Z,99924.00
2018-07-16T06:43:54.384Z,99922.39
2018-07-16T06:46:22.797Z,99925.81
2018-07-16T06:48:51.237Z,99918.50
2018-07-16T06:51:19.667Z,99919.30
2018-07-16T06:53:48.249Z,99924.06
2018-07-16T06:56:16.713Z,99922.66
2018-07-16T06:58:45.202Z,99912.53
2018-07-16T07:01:13.640Z,99916.36
2018-07-16T07:03:42.573Z,99921.56
2018-07-16T07:06:11.028Z,99918.32
2018-07-16T07:08:39.554Z,99916.22
2018-07-16T07:11:08.025Z,99911.39
2018-07-16T07:13:36.458Z,99913.25
2018-07-16T07:16:04.917Z,99912.70
2018-07-16T07:18:33.482Z,99913.27
2018-07-16T07:21:01.898Z,99912.40
2018-07-16T07:23:30.322Z,99914.52
2018-07-16T07:25:58.725Z,99906.19
2018-07-16T07:28:27.242Z,99904.78
2018-07-16T07:30:55.737Z,99906.72
2018-07-16T07:33:24.164Z,99900.63
2018-07-16T07:35:55.792Z,99897.58
2018-07-16T07:38:24.208Z,99893.70
2018-07-16T07:40:52.689Z,99901.41
2018-07-16T07:43:21.177Z,99893.85
2018-07-16T07:45:49.597Z,99897.30
2018-07-16T07:48:18.042Z,99894.63
2018-07-16T07:50:46.538Z,99902.78
2018-07-16T07:53:14.988Z,99898.46
2018-07-16T07:55:43.548Z,99898.47
2018-07-16T07:58:11.933Z,99897.39
2018-07-16T08:00:40.345Z,99900.39
2018-07-16T08:03:08.779Z,99898.01
2018-07-16T08:05:37.199Z,99889.63
2018-07-16T08:08:05.817Z,99882.70
2018-07-16T08:10:34.209Z,99884.19
2018-07-16T08:13:02.664Z,99878.95
2018-07-16T08:15:31.145Z,99878.37
2018-07-16T08:17:59.853Z,99877.00
2018-07-16T08:20:28.293Z,99883.09
2018-07-16T08:22:56.799Z,99883.68
2018-07-16T08:25:25.195Z,99874.19
2018-07-16T08:27:53.677Z,99870.80
2018-07-16T08:30:22.095Z,99877.70
2018-07-16T08:32:51.195Z,99874.08
2018-07-16T08:35:19.850Z,99873.08
2018-07-16T08:37:48.318Z,99876.58
2018-07-16T08:40:16.771Z,99876.56
2018-07-16T08:42:45.220Z,99886.70
2018-07-16T08:45:24.917Z,99877.61
2018-07-16T08:47:53.341Z,99873.95
2018-07-16T08:50:21.789Z,99876.66
2018-07-16T08:52:50.380Z,99878.00
2018-07-16T08:55:19.435Z,99885.59
2018-07-16T08:57:47.878Z,99881.64
2018-07-16T09:00:16.369Z,99883.42
2018-07-16T09:02:44.790Z,99884.33
2018-07-16T09:05:13.353Z,99887.16
2018-07-16T09:07:41.838Z,99881.20
2018-07-16T09:10:10.502Z,99879.35
2018-07-16T09:12:39.000Z,99879.39
2018-07-16T09:15:07.539Z,99879.44
2018-07-16T09:17:36.183Z,99874.06
2018-07-16T09:20:04.741Z,99876.92
2018-07-16T09:22:33.239Z,99873.77
2018-07-16T09:25:01.725Z,99869.49
2018-07-16T09:27:30.186Z,99869.00
2018-07-16T09:29:58.749Z,99871.19
2018-07-16T09:32:27.169Z,99869.17
2018-07-16T09:34:55.738Z,99866.45
2018-07-16T09:37:24.199Z,99870.00
2018-07-16T09:39:52.645Z,99861.54
2018-07-16T09:42:21.084Z,99861.31
2018-07-16T09:44:49.559Z,99856.92
2018-07-16T09:47:18.457Z,99860.45
2018-07-16T09:49:46.896Z,99860.74
2018-07-16T09:52:15.318Z,99856.84
2018-07-16T09:54:43.748Z,99865.01
2018-07-16T09:57:12.185Z,99857.16
2018-07-16T09:59:40.621Z,99858.30
2018-07-16T10:02:14.434Z,99857.24
2018-07-16T10:04:42.914Z,99853.80
2018-07-16T10:07:11.545Z,99855.52
2018-07-16T10:09:40.026Z,99856.16
2018-07-16T10:12:08.793Z,99851.24
2018-07-16T10:14:37.246Z,99852.68
2018-07-16T10:17:06.912Z,99849.56
2018-07-16T10:19:39.634Z,99844.23
2018-07-16T10:24:46.502Z,99851.08
2018-07-16T10:27:15.594Z,99837.47
2018-07-16T10:29:45.898Z,99843.86
2018-07-16T10:32:14.415Z,99841.66
2018-07-16T10:34:42.824Z,99845.87
2018-07-16T10:37:11.259Z,99840.04
2018-07-16T10:39:39.723Z,99847.06
2018-07-16T10:42:08.270Z,99842.30
2018-07-16T10:44:37.090Z,99842.04
2018-07-16T10:47:05.590Z,99834.41
2018-07-16T10:49:34.132Z,99831.59
2018-07-16T10:52:03.578Z,99826.33
2018-07-16T10:54:32.666Z,99827.72
2018-07-16T10:57:01.236Z,99823.10
2018-07-16T10:59:29.794Z,99832.76
2018-07-16T11:01:58.249Z,99832.09
2018-07-16T11:04:26.678Z,99824.13
2018-07-16T11:06:55.096Z,99829.44
2018-07-16T11:09:23.568Z,99826.66
2018-07-16T11:11:52.017Z,99822.33
2018-07-16T11:14:20.474Z,99827.84
2018-07-16T11:16:49.778Z,99828.53
2018-07-16T11:19:18.209Z,99829.33
2018-07-16T11:21:46.670Z,99828.63
2018-07-16T11:24:15.114Z,99821.57
2018-07-16T11:26:43.666Z,99822.30
2018-07-16T11:29:12.936Z,99818.87
2018-07-16T11:31:41.361Z,99820.23
2018-07-16T11:34:09.874Z,99819.88
2018-07-16T11:36:38.629Z,99819.17
2018-07-16T11:39:08.069Z,99809.17
2018-07-16T11:41:37.026Z,99807.27
2018-07-16T11:44:06.061Z,99811.98
2018-07-16T11:46:34.491Z,99804.48
2018-07-16T11:49:22.970Z,99803.34
2018-07-16T11:51:51.823Z,99800.64
2018-07-16T11:54:20.399Z,99805.08
2018-07-16T11:56:50.744Z,99797.48
2018-07-16T11:59:19.458Z,99801.20
2018-07-16T12:01:49.728Z,99798.95
2018-07-16T12:04:18.092Z,99787.83
2018-07-16T12:06:46.586Z,99791.20
2018-07-16T12:09:14.971Z,99788.89
2018-07-16T12:11:43.388Z,99784.45
2018-07-16T12:14:12.754Z,99779.95
2018-07-16T12:16:41.190Z,99775.74
2018-07-16T12:19:09.578Z,99777.45
2018-07-16T12:21:39.986Z,99770.77
2018-07-16T12:24:08.397Z,99764.14
2018-07-16T12:26:36.870Z,99770.22
2018-07-16T12:29:05.808Z,99767.13
2018-07-16T12:31:34.353Z,99766.80
2018-07-16T12:34:02.822Z,99760.95
2018-07-16T12:36:31.233Z,99755.94
2018-07-16T12:38:59.646Z,99757.92
2018-07-16T12:41:28.315Z,99756.12
2018-07-16T12:43:56.662Z,99754.12
2018-07-16T12:46:25.094Z,99750.86
2018-07-16T12:48:53.480Z,99749.53
2018-07-16T12:51:21.881Z,99742.42
2018-07-16T12:53:50.329Z,99739.00
2018-07-16T12:56:18.772Z,99736.94
2018-07-16T12:58:47.161Z,99734.89
2018-07-16T13:01:15.605Z,99733.72
2018-07-16T13:03:44.290Z,99725.67
2018-07-16T13:06:12.761Z,99725.05
2018-07-16T13:08:41.105Z,99718.13
2018-07-16T13:11:09.509Z,99711.86
2018-07-16T13:13:37.965Z,99713.69
2018-07-16T13:16:06.420Z,99709.29
2018-07-16T13:18:34.831Z,99716.58
2018-07-16T13:21:03.246Z,99707.41
2018-07-16T13:23:31.657Z,99713.50
2018-07-16T13:26:00.100Z,99716.27
2018-07-16T13:28:28.493Z,99715.91
2018-07-16T13:30:56.937Z,99713.21
2018-07-16T13:33:25.380Z,99710.53
2018-07-16T13:35:53.802Z,99696.75
2018-07-16T13:38:22.188Z,99696.71
2018-07-16T13:40:50.573Z,99690.98
2018-07-16T13:43:19.030Z,99689.02
2018-07-16T13:45:47.513Z,99690.23
2018-07-16T13:48:16.037Z,99688.56
2018-07-16T13:50:44.426Z,99690.43
2018-07-16T13:53:12.885Z,99689.09
2018-07-16T13:55:41.285Z,99691.58
2018-07-16T13:58:09.710Z,99689.23
2018-07-16T14:00:38.114Z,99684.91
2018-07-16T14:03:06.575Z,99690.61
2018-07-16T14:05:35.041Z,99686.09
2018-07-16T14:08:03.473Z,99684.56
2018-07-16T14:10:31.934Z,99681.04
2018-07-16T14:13:00.413Z,99684.25
2018-07-16T14:15:28.820Z,99683.80
2018-07-16T14:17:57.277Z,99687.20
2018-07-16T14:20:25.675Z,99665.53
2018-07-16T14:22:54.109Z,99676.88
2018-07-16T14:25:22.512Z,99676.56
2018-07-16T14:27:50.904Z,99674.02
2018-07-16T14:30:19.406Z,99673.44
2018-07-16T14:32:47.790Z,99676.34
2018-07-16T14:35:16.229Z,99673.65
2018-07-16T14:37:44.786Z,99671.62
2018-07-16T14:40:13.183Z,99675.55
2018-07-16T14:42:41.669Z,99674.09
2018-07-16T14:45:10.127Z,99679.05
2018-07-16T14:47:38.660Z,99672.96
2018-07-16T14:50:07.090Z,99671.77
2018-07-16T14:52:35.613Z,99671.92
2018-07-16T14:55:04.134Z,99670.83
2018-07-16T14:57:32.745Z,99667.77
2018-07-16T15:00:01.254Z,99660.56
2018-07-16T15:02:29.802Z,99666.68
2018-07-16T15:04:58.220Z,99663.66
2018-07-16T15:07:26.910Z,99658.67
2018-07-16T15:09:55.398Z,99653.54
2018-07-16T15:12:23.855Z,99656.59
2018-07-16T15:14:52.227Z,99658.00
2018-07-16T15:17:20.802Z,99649.59
2018-07-16T15:19:49.235Z,99647.83
2018-07-16T15:22:18.610Z,99650.92
2018-07-16T15:24:47.203Z,99647.52
2018-07-16T15:27:15.823Z,99650.66
2018-07-16T15:29:44.219Z,99646.01
2018-07-16T15:32:12.626Z,99648.73
2018-07-16T15:34:41.127Z,99643.91
2018-07-16T15:37:09.617Z,99645.83
2018-07-16T15:39:38.013Z,99645.70
2018-07-16T15:42:06.493Z,99644.33
2018-07-16T15:44:35.054Z,99648.88
2018-07-16T15:47:03.521Z,99645.27
2018-07-16T15:49:36.313Z,99645.69
2018-07-16T15:52:04.780Z,99650.56
2018-07-16T15:54:33.249Z,99642.88
2018-07-16T15:57:01.766Z,99642.98
2018-07-16T15:59:30.210Z,99639.05
2018-07-16T16:01:58.671Z,99638.88
2018-07-16T16:04:27.148Z,99645.16
2018-07-16T16:06:55.601Z,99638.42
2018-07-16T16:09:24.056Z,99638.09
2018-07-16T16:11:52.494Z,99639.66
2018-07-16T16:14:20.926Z,99645.00
2018-07-16T16:16:49.382Z,99643.69
2018-07-16T16:19:17.933Z,99630.80
2018-07-16T16:21:46.733Z,99638.88
2018-07-16T16:24:15.194Z,99635.05
2018-07-16T16:26:43.645Z,99627.37
2018-07-16T16:29:12.125Z,99631.69
2018-07-16T16:31:41.665Z,99628.05
2018-07-16T16:34:10.285Z,99623.00
2018-07-16T16:36:38.774Z,99627.85
2018-07-16T16:39:08.621Z,99628.88
2018-07-16T16:41:37.065Z,99624.86
2018-07-16T16:44:05.625Z,99632.42
2018-07-16T16:46:35.205Z,99632.77
2018-07-16T16:49:03.785Z,99633.77
2018-07-16T16:51:32.305Z,99633.41
2018-07-16T16:54:00.745Z,99637.84
2018-07-16T16:56:29.215Z,99628.77
2018-07-16T16:58:57.757Z,99636.73
2018-07-16T17:01:26.222Z,99634.65
2018-07-16T17:03:58.293Z,99631.52
2018-07-16T17:06:26.867Z,99628.16
2018-07-16T17:08:55.269Z,99637.63
2018-07-16T17:11:28.277Z,99643.52
2018-07-16T17:13:56.694Z,99633.61
2018-07-16T17:16:25.265Z,99636.60
2018-07-16T17:18:57.497Z,99635.08
2018-07-16T17:21:25.881Z,99633.36
2018-07-16T17:23:54.334Z,99636.35
2018-07-16T17:26:22.741Z,99629.57
2018-07-16T17:28:51.197Z,99630.03
2018-07-16T17:31:19.691Z,99632.67
2018-07-16T17:33:48.650Z,99624.66
2018-07-16T17:36:17.081Z,99623.06
2018-07-16T17:38:45.546Z,99638.87
2018-07-16T17:41:15.996Z,99631.86
2018-07-16T17:43:44.631Z,99629.47
2018-07-16T17:46:13.085Z,99633.77
2018-07-16T17:48:41.743Z,99627.98
2018-07-16T17:51:10.165Z,99629.17
2018-07-16T17:53:38.620Z,99631.50
2018-07-16T17:56:07.384Z,99638.76
2018-07-16T17:58:35.899Z,99634.11
2018-07-16T18:01:05.264Z,99639.23
2018-07-16T18:03:33.660Z,99640.86
2018-07-16T18:06:02.242Z,99645.41
2018-07-16T18:08:38.823Z,99642.27
2018-07-16T18:11:07.425Z,99641.66
2018-07-16T18:13:35.966Z,99642.07
2018-07-16T18:16:04.425Z,99650.01
2018-07-16T18:18:32.832Z,99651.63
2018-07-16T18:21:02.352Z,99647.97
2018-07-16T18:23:30.804Z,99647.97
2018-07-16T18:25:59.343Z,99648.97
2018-07-16T18:28:27.857Z,99650.45
2018-07-16T18:30:56.293Z,99661.72
2018-07-16T18:33:24.750Z,99662.08
2018-07-16T18:35:53.273Z,99660.77
2018-07-16T18:38:21.732Z,99656.95
2018-07-16T18:40:50.298Z,99662.81
2018-07-16T18:43:18.724Z,99664.90
2018-07-16T18:45:47.182Z,99662.05
2018-07-16T18:48:15.766Z,99661.34
2018-07-16T18:50:44.257Z,99673.12
2018-07-16T18:53:12.721Z,99669.67
2018-07-16T18:55:41.226Z,99672.05
2018-07-16T18:58:09.621Z,99675.19
2018-07-16T19:00:38.059Z,99674.77
2018-07-16T19:03:06.531Z,99671.63
2018-07-16T19:05:34.976Z,99673.63
2018-07-16T19:08:03.453Z,99678.04
2018-07-16T19:10:31.843Z,99673.58
2018-07-16T19:13:00.257Z,99687.55
2018-07-16T19:15:29.185Z,99688.26
2018-07-16T19:17:58.249Z,99689.71
2018-07-16T19:20:27.480Z,99689.47
2018-07-16T19:22:55.882Z,99694.93
2018-07-16T19:25:24.454Z,99699.47
2018-07-16T19:27:52.957Z,99699.00
2018-07-16T19:30:21.477Z,99697.34
2018-07-16T19:32:49.939Z,99699.34
2018-07-16T19:35:18.624Z,99702.88
2018-07-16T19:37:47.066Z,99707.77
2018-07-16T19:40:15.646Z,99709.47
2018-07-16T19:42:44.138Z,99710.78
2018-07-16T19:45:12.604Z,99711.28
2018-07-16T19:47:40.996Z,99710.56
2018-07-16T19:50:09.458Z,99721.24
2018-07-16T19:52:38.006Z,99722.38
2018-07-16T19:55:06.597Z,99727.19
2018-07-16T19:57:35.370Z,99728.38
2018-07-16T20:00:04.850Z,99735.98
2018-07-16T20:02:33.249Z,99736.08
2018-07-16T20:05:01.674Z,99738.14
2018-07-16T20:07:30.133Z,99736.76
2018-07-16T20:09:58.678Z,99740.61
2018-07-16T20:12:32.397Z,99739.98
2018-07-16T20:15:01.868Z,99743.52
2018-07-16T20:17:31.388Z,99754.38
2018-07-16T20:20:00.323Z,99748.59
2018-07-16T20:22:29.146Z,99750.44
2018-07-16T20:24:57.777Z,99753.50
2018-07-16T20:27:26.176Z,99752.93
2018-07-16T20:29:54.937Z,99756.31
2018-07-16T20:32:23.365Z,99755.53
2018-07-16T20:34:51.874Z,99762.22
2018-07-16T20:37:20.305Z,99764.95
2018-07-16T20:39:48.820Z,99761.09
2018-07-16T20:42:17.290Z,99764.98
2018-07-16T20:44:45.665Z,99769.00
2018-07-16T20:47:14.287Z,99768.11
2018-07-16T20:49:42.721Z,99763.23
2018-07-16T20:52:11.193Z,99763.87
2018-07-16T20:54:39.609Z,99768.97
2018-07-16T20:57:08.098Z,99764.37
2018-07-16T20:59:36.657Z,99762.06
2018-07-16T21:02:05.138Z,99763.30
2018-07-16T21:04:33.570Z,99769.44
2018-07-16T21:07:02.114Z,99780.09
2018-07-16T21:09:30.611Z,99780.31
2018-07-16T21:11:59.158Z,99779.02
2018-07-16T21:14:27.672Z,99778.38
2018-07-16T21:16:56.153Z,99783.34
2018-07-16T21:19:24.638Z,99774.91
2018-07-16T21:21:53.133Z,99781.53
2018-07-16T21:24:21.547Z,99777.12
2018-07-16T21:26:50.033Z,99787.27
2018-07-16T21:29:18.480Z,99793.53
2018-07-16T21:31:46.940Z,99798.09
2018-07-16T21:34:15.348Z,99797.17
2018-07-16T21:36:43.753Z,99797.33
2018-07-16T21:39:12.376Z,99802.05
2018-07-16T21:41:40.787Z,99798.99
2018-07-16T21:44:09.183Z,99800.81
2018-07-16T21:46:37.614Z,99804.00
2018-07-16T21:49:06.099Z,99803.42
2018-07-16T21:51:34.625Z,99801.80
2018-07-16T21:54:03.017Z,99801.27
2018-07-16T21:56:31.550Z,99794.72
2018-07-16T21:58:59.996Z,99799.84
2018-07-16T22:01:28.501Z,99799.70
2018-07-16T22:03:57.023Z,99792.86
2018-07-16T22:06:25.517Z,99798.66
2018-07-16T22:08:54.376Z,99797.97
2018-07-16T22:11:22.787Z,99793.97
2018-07-16T22:13:51.334Z,99795.14
2018-07-16T22:16:19.855Z,99803.34
2018-07-16T22:18:48.212Z,99805.63
2018-07-16T22:21:16.689Z,99809.34
2018-07-16T22:23:45.114Z,99811.53
2018-07-16T22:26:13.581Z,99816.39
2018-07-16T22:28:42.018Z,99818.91
2018-07-16T22:31:10.566Z,99824.28
2018-07-16T22:33:39.000Z,99817.30
2018-07-16T22:36:07.570Z,99816.33
2018-07-16T22:38:36.107Z,99816.44
2018-07-16T22:41:04.593Z,99816.94
2018-07-16T22:43:33.079Z,99818.20
2018-07-16T22:46:01.609Z,99810.16
2018-07-16T22:48:30.074Z,99816.47
2018-07-16T22:50:58.551Z,99818.65
2018-07-16T22:53:26.993Z,99826.20
2018-07-16T22:55:55.393Z,99828.45
2018-07-16T22:58:23.837Z,99824.59
2018-07-16T23:00:52.244Z,99823.28
2018-07-16T23:03:20.765Z,99821.58
2018-07-16T23:05:49.141Z,99828.27
2018-07-16T23:08:18.657Z,99835.64
2018-07-16T23:10:47.429Z,99827.95
2018-07-16T23:13:15.889Z,99821.57
2018-07-16T23:15:44.378Z,99838.92
2018-07-16T23:18:12.894Z,99832.87
2018-07-16T23:20:41.297Z,99828.91
2018-07-16T23:23:09.821Z,99833.05
2018-07-16T23:25:38.215Z,99832.66
2018-07-16T23:28:07.237Z,99832.17
2018-07-16T23:30:35.646Z,99831.82
2018-07-16T23:33:04.107Z,99833.01
2018-07-16T23:35:32.597Z,99834.97
2018-07-16T23:38:01.009Z,99834.50
2018-07-16T23:40:29.401Z,99829.89
2018-07-16T23:42:57.813Z,99826.81
2018-07-16T23:45:26.229Z,99832.24
2018-07-16T23:47:54.684Z,99833.13
2018-07-16T23:50:23.195Z,99834.77
2018-07-16T23:52:51.569Z,99836.59
2018-07-16T23:55:19.997Z,99841.25
2018-07-16T23:57:48.465Z,99842.70
